sensor_id;sensor_type;location;lat;lon;timestamp;pressure;altitude;pressure_sealevel;temperature;humidity
17060;BME280;8646;49.716;9.266;2023-04-01T00:01:01;98662.53;;;11.79;72.46
17060;BME280;8646;49.716;9.266;2023-04-01T00:04:04;98673.50;;;11.78;72.21
17060;BME280;8646;49.716;9.266;2023-04-01T00:07:07;98670.69;;;11.79;72.15
17060;BME280;8646;49.716;9.266;2023-04-01T00:10:32;98666.13;;;11.80;71.85
17060;BME280;8646;49.716;9.266;2023-04-01T00:13:41;98666.00;;;11.81;72.01
17060;BME280;8646;49.716;9.266;2023-04-01T00:16:46;98649.66;;;11.83;71.55
17060;BME280;8646;49.716;9.266;2023-04-01T00:19:57;98655.28;;;11.80;71.43
17060;BME280;8646;49.716;9.266;2023-04-01T00:23:02;98654.41;;;11.79;71.82
17060;BME280;8646;49.716;9.266;2023-04-01T00:26:16;98647.50;;;11.75;71.83
17060;BME280;8646;49.716;9.266;2023-04-01T00:29:23;98675.22;;;11.79;71.86
17060;BME280;8646;49.716;9.266;2023-04-01T00:32:30;98656.16;;;11.80;71.76
17060;BME280;8646;49.716;9.266;2023-04-01T00:35:33;98652.06;;;11.75;71.75
17060;BME280;8646;49.716;9.266;2023-04-01T00:38:43;98655.06;;;11.70;71.52
17060;BME280;8646;49.716;9.266;2023-04-01T00:41:46;98664.16;;;11.69;71.38
17060;BME280;8646;49.716;9.266;2023-04-01T00:44:52;98654.44;;;11.67;71.98
17060;BME280;8646;49.716;9.266;2023-04-01T00:47:56;98651.59;;;11.68;71.54
17060;BME280;8646;49.716;9.266;2023-04-01T00:51:05;98658.13;;;11.66;71.74
17060;BME280;8646;49.716;9.266;2023-04-01T00:54:16;98653.56;;;11.66;71.52
17060;BME280;8646;49.716;9.266;2023-04-01T00:57:23;98645.00;;;11.60;71.62
17060;BME280;8646;49.716;9.266;2023-04-01T01:00:32;98657.72;;;11.59;71.55
17060;BME280;8646;49.716;9.266;2023-04-01T01:03:35;98652.03;;;11.62;71.52
17060;BME280;8646;49.716;9.266;2023-04-01T01:06:46;98664.63;;;11.63;71.37
17060;BME280;8646;49.716;9.266;2023-04-01T01:09:59;98662.00;;;11.62;71.74
17060;BME280;8646;49.716;9.266;2023-04-01T01:13:18;98659.19;;;11.63;71.66
17060;BME280;8646;49.716;9.266;2023-04-01T01:16:37;98657.75;;;11.70;71.13
17060;BME280;8646;49.716;9.266;2023-04-01T01:20:09;98654.66;;;11.64;71.27
17060;BME280;8646;49.716;9.266;2023-04-01T01:27:09;98654.75;;;11.62;71.65
17060;BME280;8646;49.716;9.266;2023-04-01T01:30:24;98659.31;;;11.62;71.52
17060;BME280;8646;49.716;9.266;2023-04-01T01:33:39;98647.50;;;11.63;71.61
17060;BME280;8646;49.716;9.266;2023-04-01T01:36:55;98649.34;;;11.62;71.71
17060;BME280;8646;49.716;9.266;2023-04-01T01:40:05;98651.28;;;11.60;71.57
17060;BME280;8646;49.716;9.266;2023-04-01T01:43:11;98636.66;;;11.63;71.24
17060;BME280;8646;49.716;9.266;2023-04-01T01:46:30;98641.44;;;11.59;71.55
17060;BME280;8646;49.716;9.266;2023-04-01T01:49:35;98626.91;;;11.60;71.90
17060;BME280;8646;49.716;9.266;2023-04-01T01:52:42;98621.47;;;11.60;71.73
17060;BME280;8646;49.716;9.266;2023-04-01T01:55:54;98630.63;;;11.59;71.20
17060;BME280;8646;49.716;9.266;2023-04-01T01:59:00;98618.03;;;11.58;71.42
17060;BME280;8646;49.716;9.266;2023-04-01T02:02:06;98628.63;;;11.61;70.98
17060;BME280;8646;49.716;9.266;2023-04-01T02:05:16;98630.63;;;11.59;70.81
17060;BME280;8646;49.716;9.266;2023-04-01T02:08:30;98622.81;;;11.55;71.03
17060;BME280;8646;49.716;9.266;2023-04-01T02:11:40;98608.63;;;11.51;70.77
17060;BME280;8646;49.716;9.266;2023-04-01T02:14:51;98611.97;;;11.55;70.62
17060;BME280;8646;49.716;9.266;2023-04-01T02:17:55;98617.50;;;11.53;70.64
17060;BME280;8646;49.716;9.266;2023-04-01T02:21:12;98619.59;;;11.50;70.78
17060;BME280;8646;49.716;9.266;2023-04-01T02:24:17;98624.13;;;11.49;70.89
17060;BME280;8646;49.716;9.266;2023-04-01T02:27:30;98626.94;;;11.47;70.76
17060;BME280;8646;49.716;9.266;2023-04-01T02:30:36;98623.03;;;11.52;70.49
17060;BME280;8646;49.716;9.266;2023-04-01T02:33:44;98631.28;;;11.50;70.67
17060;BME280;8646;49.716;9.266;2023-04-01T02:36:47;98625.41;;;11.56;70.56
17060;BME280;8646;49.716;9.266;2023-04-01T02:39:59;98622.59;;;11.58;70.44
17060;BME280;8646;49.716;9.266;2023-04-01T02:43:02;98620.19;;;11.53;70.47
17060;BME280;8646;49.716;9.266;2023-04-01T02:46:05;98628.56;;;11.50;70.49
17060;BME280;8646;49.716;9.266;2023-04-01T02:49:08;98633.22;;;11.48;70.49
17060;BME280;8646;49.716;9.266;2023-04-01T02:52:11;98634.97;;;11.49;70.87
17060;BME280;8646;49.716;9.266;2023-04-01T02:55:15;98627.81;;;11.48;70.42
17060;BME280;8646;49.716;9.266;2023-04-01T02:58:25;98619.03;;;11.44;70.69
17060;BME280;8646;49.716;9.266;2023-04-01T03:01:34;98628.03;;;11.45;70.57
17060;BME280;8646;49.716;9.266;2023-04-01T03:04:37;98630.72;;;11.45;70.65
17060;BME280;8646;49.716;9.266;2023-04-01T03:07:47;98637.13;;;11.44;70.85
17060;BME280;8646;49.716;9.266;2023-04-01T03:10:53;98639.31;;;11.39;71.12
17060;BME280;8646;49.716;9.266;2023-04-01T03:13:59;98635.63;;;11.40;71.27
17060;BME280;8646;49.716;9.266;2023-04-01T03:17:09;98631.94;;;11.41;71.63
17060;BME280;8646;49.716;9.266;2023-04-01T03:20:12;98632.06;;;11.39;71.58
17060;BME280;8646;49.716;9.266;2023-04-01T03:23:16;98636.16;;;11.45;71.33
17060;BME280;8646;49.716;9.266;2023-04-01T03:26:31;98636.50;;;11.40;71.57
17060;BME280;8646;49.716;9.266;2023-04-01T03:29:34;98635.53;;;11.41;71.38
17060;BME280;8646;49.716;9.266;2023-04-01T03:32:43;98633.91;;;11.39;71.64
17060;BME280;8646;49.716;9.266;2023-04-01T03:35:45;98635.84;;;11.37;71.36
17060;BME280;8646;49.716;9.266;2023-04-01T03:38:55;98634.75;;;11.39;71.72
17060;BME280;8646;49.716;9.266;2023-04-01T03:41:59;98633.78;;;11.40;71.14
17060;BME280;8646;49.716;9.266;2023-04-01T03:45:06;98636.41;;;11.42;70.96
17060;BME280;8646;49.716;9.266;2023-04-01T03:48:24;98635.63;;;11.40;70.77
17060;BME280;8646;49.716;9.266;2023-04-01T03:51:26;98626.44;;;11.42;70.81
17060;BME280;8646;49.716;9.266;2023-04-01T03:54:29;98636.25;;;11.43;70.51
17060;BME280;8646;49.716;9.266;2023-04-01T03:57:42;98638.13;;;11.43;70.70
17060;BME280;8646;49.716;9.266;2023-04-01T04:00:45;98619.91;;;11.45;70.29
17060;BME280;8646;49.716;9.266;2023-04-01T04:03:49;98626.94;;;11.47;70.30
17060;BME280;8646;49.716;9.266;2023-04-01T04:06:52;98629.88;;;11.44;69.88
17060;BME280;8646;49.716;9.266;2023-04-01T04:10:09;98628.03;;;11.45;70.18
17060;BME280;8646;49.716;9.266;2023-04-01T04:13:13;98633.69;;;11.42;70.01
17060;BME280;8646;49.716;9.266;2023-04-01T04:16:19;98634.97;;;11.36;70.17
17060;BME280;8646;49.716;9.266;2023-04-01T04:19:34;98625.00;;;11.37;70.33
17060;BME280;8646;49.716;9.266;2023-04-01T04:22:36;98625.00;;;11.37;70.45
17060;BME280;8646;49.716;9.266;2023-04-01T04:25:39;98621.31;;;11.38;70.37
17060;BME280;8646;49.716;9.266;2023-04-01T04:28:43;98618.09;;;11.33;70.78
17060;BME280;8646;49.716;9.266;2023-04-01T04:31:46;98640.22;;;11.27;70.67
17060;BME280;8646;49.716;9.266;2023-04-01T04:34:49;98609.66;;;11.25;70.70
17060;BME280;8646;49.716;9.266;2023-04-01T04:37:55;98614.41;;;11.21;70.83
17060;BME280;8646;49.716;9.266;2023-04-01T04:40:57;98615.63;;;11.17;70.77
17060;BME280;8646;49.716;9.266;2023-04-01T04:44:03;98606.84;;;11.14;70.86
17060;BME280;8646;49.716;9.266;2023-04-01T04:47:06;98616.91;;;11.12;71.07
17060;BME280;8646;49.716;9.266;2023-04-01T04:50:09;98609.66;;;11.12;71.18
17060;BME280;8646;49.716;9.266;2023-04-01T04:53:13;98606.84;;;11.14;70.91
17060;BME280;8646;49.716;9.266;2023-04-01T04:56:20;98603.94;;;11.17;70.89
17060;BME280;8646;49.716;9.266;2023-04-01T04:59:27;98612.06;;;11.17;70.68
17060;BME280;8646;49.716;9.266;2023-04-01T05:02:30;98604.72;;;11.19;70.92
17060;BME280;8646;49.716;9.266;2023-04-01T05:05:33;98608.38;;;11.18;71.38
17060;BME280;8646;49.716;9.266;2023-04-01T05:08:36;98609.88;;;11.22;71.74
17060;BME280;8646;49.716;9.266;2023-04-01T05:11:40;98608.13;;;11.21;72.24
17060;BME280;8646;49.716;9.266;2023-04-01T05:14:44;98622.44;;;11.23;73.17
17060;BME280;8646;49.716;9.266;2023-04-01T05:17:50;98617.47;;;11.17;73.83
17060;BME280;8646;49.716;9.266;2023-04-01T05:20:54;98618.97;;;11.21;74.39
17060;BME280;8646;49.716;9.266;2023-04-01T05:23:57;98623.97;;;11.14;74.77
17060;BME280;8646;49.716;9.266;2023-04-01T05:27:07;98619.41;;;11.15;75.12
17060;BME280;8646;49.716;9.266;2023-04-01T05:30:19;98623.09;;;11.14;76.36
17060;BME280;8646;49.716;9.266;2023-04-01T05:33:22;98622.34;;;11.12;76.24
17060;BME280;8646;49.716;9.266;2023-04-01T05:36:25;98623.34;;;11.11;76.63
17060;BME280;8646;49.716;9.266;2023-04-01T05:39:27;98623.34;;;11.11;77.24
17060;BME280;8646;49.716;9.266;2023-04-01T05:42:30;98635.25;;;11.08;77.57
17060;BME280;8646;49.716;9.266;2023-04-01T05:45:37;98636.09;;;11.08;77.82
17060;BME280;8646;49.716;9.266;2023-04-01T05:48:40;98631.66;;;11.07;78.28
17060;BME280;8646;49.716;9.266;2023-04-01T05:51:43;98631.56;;;11.09;77.84
17060;BME280;8646;49.716;9.266;2023-04-01T05:54:49;98626.16;;;11.09;78.04
17060;BME280;8646;49.716;9.266;2023-04-01T05:57:51;98633.16;;;11.12;78.28
17060;BME280;8646;49.716;9.266;2023-04-01T06:01:04;98640.41;;;11.11;78.70
17060;BME280;8646;49.716;9.266;2023-04-01T06:04:17;98652.13;;;11.12;79.16
17060;BME280;8646;49.716;9.266;2023-04-01T06:07:20;98645.63;;;11.14;79.75
17060;BME280;8646;49.716;9.266;2023-04-01T06:10:45;98640.63;;;11.21;79.56
17060;BME280;8646;49.716;9.266;2023-04-01T06:14:12;98646.59;;;11.26;79.48
17060;BME280;8646;49.716;9.266;2023-04-01T06:17:32;98648.66;;;11.35;79.37
17060;BME280;8646;49.716;9.266;2023-04-01T06:20:49;98646.25;;;11.43;78.89
17060;BME280;8646;49.716;9.266;2023-04-01T06:24:13;98638.00;;;11.44;78.82
17060;BME280;8646;49.716;9.266;2023-04-01T06:27:37;98642.31;;;11.47;78.60
17060;BME280;8646;49.716;9.266;2023-04-01T06:30:49;98644.06;;;11.48;78.95
17060;BME280;8646;49.716;9.266;2023-04-01T06:34:19;98644.59;;;11.53;78.52
17060;BME280;8646;49.716;9.266;2023-04-01T06:37:36;98641.88;;;11.53;78.61
17060;BME280;8646;49.716;9.266;2023-04-01T06:41:05;98640.13;;;11.52;78.43
17060;BME280;8646;49.716;9.266;2023-04-01T06:44:16;98649.91;;;11.55;78.41
17060;BME280;8646;49.716;9.266;2023-04-01T06:47:33;98634.06;;;11.61;78.89
17060;BME280;8646;49.716;9.266;2023-04-01T06:50:46;98643.34;;;11.70;78.65
17060;BME280;8646;49.716;9.266;2023-04-01T06:53:55;98620.16;;;11.78;78.46
17060;BME280;8646;49.716;9.266;2023-04-01T06:57:07;98626.75;;;11.87;78.26
17060;BME280;8646;49.716;9.266;2023-04-01T07:00:20;98633.44;;;11.94;78.28
17060;BME280;8646;49.716;9.266;2023-04-01T07:03:30;98634.00;;;12.10;77.88
17060;BME280;8646;49.716;9.266;2023-04-01T07:06:38;98636.13;;;12.18;77.30
17060;BME280;8646;49.716;9.266;2023-04-01T07:09:49;98623.84;;;12.25;76.71
17060;BME280;8646;49.716;9.266;2023-04-01T07:12:55;98622.66;;;12.29;76.16
17060;BME280;8646;49.716;9.266;2023-04-01T07:16:07;98623.03;;;12.36;76.37
17060;BME280;8646;49.716;9.266;2023-04-01T07:19:25;98624.88;;;12.35;76.28
17060;BME280;8646;49.716;9.266;2023-04-01T07:22:33;98609.31;;;12.26;76.16
17060;BME280;8646;49.716;9.266;2023-04-01T07:25:39;98618.38;;;12.38;76.24
17060;BME280;8646;49.716;9.266;2023-04-01T07:28:44;98599.00;;;12.31;76.20
17060;BME280;8646;49.716;9.266;2023-04-01T07:32:09;98628.84;;;12.42;75.70
17060;BME280;8646;49.716;9.266;2023-04-01T07:35:23;98628.41;;;12.48;75.56
17060;BME280;8646;49.716;9.266;2023-04-01T07:38:35;98630.75;;;12.53;75.42
17060;BME280;8646;49.716;9.266;2023-04-01T07:41:51;98631.38;;;12.56;75.30
17060;BME280;8646;49.716;9.266;2023-04-01T07:45:01;98627.66;;;12.57;74.96
17060;BME280;8646;49.716;9.266;2023-04-01T07:48:18;98636.06;;;12.54;74.94
17060;BME280;8646;49.716;9.266;2023-04-01T07:51:26;98636.38;;;12.50;75.43
17060;BME280;8646;49.716;9.266;2023-04-01T07:54:38;98645.41;;;12.50;75.66
17060;BME280;8646;49.716;9.266;2023-04-01T07:57:48;98653.31;;;12.53;75.51
17060;BME280;8646;49.716;9.266;2023-04-01T08:00:59;98654.41;;;12.51;75.79
17060;BME280;8646;49.716;9.266;2023-04-01T08:04:28;98660.59;;;12.53;75.90
17060;BME280;8646;49.716;9.266;2023-04-01T08:07:40;98652.59;;;12.63;75.58
17060;BME280;8646;49.716;9.266;2023-04-01T08:10:50;98659.50;;;12.67;75.77
17060;BME280;8646;49.716;9.266;2023-04-01T08:14:01;98657.31;;;12.72;75.59
17060;BME280;8646;49.716;9.266;2023-04-01T08:17:10;98653.84;;;12.70;75.62
17060;BME280;8646;49.716;9.266;2023-04-01T08:20:26;98658.53;;;12.68;75.63
17060;BME280;8646;49.716;9.266;2023-04-01T08:23:32;98645.22;;;12.76;75.69
17060;BME280;8646;49.716;9.266;2023-04-01T08:26:39;98654.75;;;12.81;75.27
17060;BME280;8646;49.716;9.266;2023-04-01T08:29:50;98652.28;;;12.89;74.99
17060;BME280;8646;49.716;9.266;2023-04-01T08:32:57;98652.94;;;12.93;74.23
17060;BME280;8646;49.716;9.266;2023-04-01T08:36:05;98643.56;;;13.08;73.89
17060;BME280;8646;49.716;9.266;2023-04-01T08:39:14;98666.69;;;13.14;73.85
17060;BME280;8646;49.716;9.266;2023-04-01T08:42:31;98662.53;;;13.21;73.71
17060;BME280;8646;49.716;9.266;2023-04-01T08:45:52;98653.75;;;13.28;73.39
17060;BME280;8646;49.716;9.266;2023-04-01T08:49:04;98659.91;;;13.30;73.23
17060;BME280;8646;49.716;9.266;2023-04-01T08:52:25;98660.91;;;13.29;73.18
17060;BME280;8646;49.716;9.266;2023-04-01T08:56:03;98663.00;;;13.26;73.48
17060;BME280;8646;49.716;9.266;2023-04-01T08:59:19;98648.06;;;13.20;73.29
17060;BME280;8646;49.716;9.266;2023-04-01T09:02:46;98660.53;;;13.34;73.42
17060;BME280;8646;49.716;9.266;2023-04-01T09:06:17;98669.44;;;13.47;73.21
17060;BME280;8646;49.716;9.266;2023-04-01T09:09:46;98663.00;;;13.48;73.11
17060;BME280;8646;49.716;9.266;2023-04-01T09:16:27;98659.19;;;13.51;73.26
17060;BME280;8646;49.716;9.266;2023-04-01T09:19:47;98669.03;;;13.63;73.29
17060;BME280;8646;49.716;9.266;2023-04-01T09:23:10;98671.13;;;13.70;73.33
17060;BME280;8646;49.716;9.266;2023-04-01T09:26:27;98670.91;;;13.73;73.25
17060;BME280;8646;49.716;9.266;2023-04-01T09:29:58;98676.69;;;13.80;73.21
17060;BME280;8646;49.716;9.266;2023-04-01T09:37:17;98657.03;;;13.88;72.64
17060;BME280;8646;49.716;9.266;2023-04-01T09:40:31;98672.72;;;14.06;72.19
17060;BME280;8646;49.716;9.266;2023-04-01T09:43:48;98670.97;;;14.17;72.43
17060;BME280;8646;49.716;9.266;2023-04-01T09:47:09;98672.91;;;14.26;71.93
17060;BME280;8646;49.716;9.266;2023-04-01T09:50:35;98678.31;;;14.37;71.51
17060;BME280;8646;49.716;9.266;2023-04-01T09:53:52;98682.25;;;14.44;71.17
17060;BME280;8646;49.716;9.266;2023-04-01T09:57:22;98673.66;;;14.60;70.92
17060;BME280;8646;49.716;9.266;2023-04-01T10:00:55;98671.56;;;14.63;71.00
17060;BME280;8646;49.716;9.266;2023-04-01T10:04:30;98671.03;;;14.69;70.75
17060;BME280;8646;49.716;9.266;2023-04-01T10:08:00;98674.38;;;14.73;70.86
17060;BME280;8646;49.716;9.266;2023-04-01T10:15:23;98682.88;;;14.79;71.51
17060;BME280;8646;49.716;9.266;2023-04-01T10:19:10;98670.00;;;14.81;71.00
17060;BME280;8646;49.716;9.266;2023-04-01T10:26:06;98680.00;;;14.81;71.19
17060;BME280;8646;49.716;9.266;2023-04-01T10:36:52;98684.50;;;14.50;71.96
17060;BME280;8646;49.716;9.266;2023-04-01T10:40:27;98688.19;;;14.38;72.72
17060;BME280;8646;49.716;9.266;2023-04-01T10:44:12;98689.47;;;14.23;73.28
17060;BME280;8646;49.716;9.266;2023-04-01T10:47:45;98698.75;;;14.20;73.48
17060;BME280;8646;49.716;9.266;2023-04-01T10:51:12;98689.09;;;14.27;74.05
17060;BME280;8646;49.716;9.266;2023-04-01T10:54:36;98691.03;;;14.36;74.19
17060;BME280;8646;49.716;9.266;2023-04-01T10:57:59;98682.53;;;14.41;74.05
17060;BME280;8646;49.716;9.266;2023-04-01T11:01:22;98687.00;;;14.42;73.84
17060;BME280;8646;49.716;9.266;2023-04-01T11:04:53;98685.13;;;14.42;74.24
17060;BME280;8646;49.716;9.266;2023-04-01T11:08:48;98683.13;;;14.44;73.95
17060;BME280;8646;49.716;9.266;2023-04-01T11:12:11;98690.19;;;14.47;74.14
17060;BME280;8646;49.716;9.266;2023-04-01T11:15:30;98693.75;;;14.47;74.42
17060;BME280;8646;49.716;9.266;2023-04-01T11:19:07;98686.94;;;14.53;74.63
17060;BME280;8646;49.716;9.266;2023-04-01T11:22:40;98700.75;;;14.61;74.69
17060;BME280;8646;49.716;9.266;2023-04-01T11:26:01;98677.88;;;14.64;74.53
17060;BME280;8646;49.716;9.266;2023-04-01T11:29:22;98691.69;;;14.72;74.18
17060;BME280;8646;49.716;9.266;2023-04-01T11:32:39;98690.28;;;14.77;74.28
17060;BME280;8646;49.716;9.266;2023-04-01T11:35:57;98683.53;;;14.93;74.13
17060;BME280;8646;49.716;9.266;2023-04-01T11:39:16;98675.50;;;15.12;73.94
17060;BME280;8646;49.716;9.266;2023-04-01T11:42:33;98697.22;;;15.23;73.76
17060;BME280;8646;49.716;9.266;2023-04-01T11:45:44;98703.47;;;15.14;73.47
17060;BME280;8646;49.716;9.266;2023-04-01T11:48:58;98706.59;;;15.09;73.75
17060;BME280;8646;49.716;9.266;2023-04-01T11:52:18;98703.41;;;15.04;73.99
17060;BME280;8646;49.716;9.266;2023-04-01T11:55:31;98705.13;;;15.05;73.99
17060;BME280;8646;49.716;9.266;2023-04-01T12:02:29;98679.69;;;14.74;74.08
17060;BME280;8646;49.716;9.266;2023-04-01T12:05:43;98725.91;;;14.85;74.07
17060;BME280;8646;49.716;9.266;2023-04-01T12:08:54;98730.56;;;14.74;74.62
17060;BME280;8646;49.716;9.266;2023-04-01T12:12:13;98723.28;;;14.63;74.68
17060;BME280;8646;49.716;9.266;2023-04-01T12:15:25;98725.16;;;14.51;75.21
17060;BME280;8646;49.716;9.266;2023-04-01T12:18:36;98717.78;;;14.42;75.30
17060;BME280;8646;49.716;9.266;2023-04-01T12:21:45;98732.50;;;14.51;75.44
17060;BME280;8646;49.716;9.266;2023-04-01T12:25:03;98728.63;;;14.54;75.83
17060;BME280;8646;49.716;9.266;2023-04-01T12:28:18;98729.13;;;14.59;75.75
17060;BME280;8646;49.716;9.266;2023-04-01T12:31:31;98734.28;;;14.62;75.76
17060;BME280;8646;49.716;9.266;2023-04-01T12:34:52;98727.50;;;14.56;76.07
17060;BME280;8646;49.716;9.266;2023-04-01T12:38:13;98731.44;;;14.63;76.24
17060;BME280;8646;49.716;9.266;2023-04-01T12:41:30;98725.75;;;14.66;75.88
17060;BME280;8646;49.716;9.266;2023-04-01T12:44:47;98729.81;;;14.72;76.00
17060;BME280;8646;49.716;9.266;2023-04-01T12:48:24;98727.31;;;14.69;75.85
17060;BME280;8646;49.716;9.266;2023-04-01T12:52:03;98729.72;;;14.62;76.10
17060;BME280;8646;49.716;9.266;2023-04-01T12:55:34;98728.59;;;14.65;75.98
17060;BME280;8646;49.716;9.266;2023-04-01T12:58:55;98742.78;;;14.79;76.07
17060;BME280;8646;49.716;9.266;2023-04-01T13:02:12;98737.78;;;14.84;76.11
17060;BME280;8646;49.716;9.266;2023-04-01T13:05:30;98737.41;;;14.89;75.61
17060;BME280;8646;49.716;9.266;2023-04-01T13:08:43;98729.38;;;14.87;75.55
17060;BME280;8646;49.716;9.266;2023-04-01T13:12:05;98739.47;;;14.97;75.83
17060;BME280;8646;49.716;9.266;2023-04-01T13:15:25;98727.78;;;15.06;75.65
17060;BME280;8646;49.716;9.266;2023-04-01T13:18:39;98743.34;;;15.15;75.47
17060;BME280;8646;49.716;9.266;2023-04-01T13:21:53;98737.63;;;15.18;74.92
17060;BME280;8646;49.716;9.266;2023-04-01T13:25:01;98741.94;;;15.20;74.95
17060;BME280;8646;49.716;9.266;2023-04-01T13:28:14;98752.94;;;15.30;74.46
17060;BME280;8646;49.716;9.266;2023-04-01T13:31:32;98745.50;;;15.32;74.76
17060;BME280;8646;49.716;9.266;2023-04-01T13:34:51;98755.56;;;15.41;74.57
17060;BME280;8646;49.716;9.266;2023-04-01T13:38:08;98753.84;;;15.40;74.66
17060;BME280;8646;49.716;9.266;2023-04-01T13:41:25;98752.13;;;15.39;74.95
17060;BME280;8646;49.716;9.266;2023-04-01T13:44:40;98761.28;;;15.38;74.73
17060;BME280;8646;49.716;9.266;2023-04-01T13:48:04;98753.72;;;15.21;75.22
17060;BME280;8646;49.716;9.266;2023-04-01T13:51:31;98758.00;;;15.03;75.09
17060;BME280;8646;49.716;9.266;2023-04-01T13:55:09;98773.19;;;14.84;75.66
17060;BME280;8646;49.716;9.266;2023-04-01T13:58:42;98773.25;;;14.73;76.08
17060;BME280;8646;49.716;9.266;2023-04-01T14:01:54;98781.41;;;14.73;76.39
17060;BME280;8646;49.716;9.266;2023-04-01T14:05:15;98787.63;;;14.64;76.58
17060;BME280;8646;49.716;9.266;2023-04-01T14:08:57;98770.84;;;14.48;76.64
17060;BME280;8646;49.716;9.266;2023-04-01T14:12:09;98789.03;;;14.47;77.30
17060;BME280;8646;49.716;9.266;2023-04-01T14:19:03;98787.41;;;14.34;77.89
17060;BME280;8646;49.716;9.266;2023-04-01T14:22:23;98784.53;;;14.35;78.14
17060;BME280;8646;49.716;9.266;2023-04-01T14:25:47;98797.81;;;14.40;78.27
17060;BME280;8646;49.716;9.266;2023-04-01T14:29:02;98788.56;;;14.42;78.21
17060;BME280;8646;49.716;9.266;2023-04-01T14:32:18;98785.09;;;14.40;77.86
17060;BME280;8646;49.716;9.266;2023-04-01T14:35:35;98795.44;;;14.46;78.06
17060;BME280;8646;49.716;9.266;2023-04-01T14:38:51;98795.56;;;14.45;77.96
17060;BME280;8646;49.716;9.266;2023-04-01T14:42:08;98798.06;;;14.48;78.15
17060;BME280;8646;49.716;9.266;2023-04-01T14:45:45;98795.84;;;14.42;78.02
17060;BME280;8646;49.716;9.266;2023-04-01T14:48:56;98801.41;;;14.40;77.88
17060;BME280;8646;49.716;9.266;2023-04-01T14:52:04;98796.06;;;14.28;78.11
17060;BME280;8646;49.716;9.266;2023-04-01T14:55:21;98811.03;;;14.33;78.03
17060;BME280;8646;49.716;9.266;2023-04-01T14:58:41;98810.69;;;14.27;78.01
17060;BME280;8646;49.716;9.266;2023-04-01T15:01:47;98821.06;;;14.33;77.93
17060;BME280;8646;49.716;9.266;2023-04-01T15:04:58;98815.13;;;14.39;77.83
17060;BME280;8646;49.716;9.266;2023-04-01T15:08:14;98814.38;;;14.48;77.76
17060;BME280;8646;49.716;9.266;2023-04-01T15:11:34;98827.00;;;14.49;77.80
17060;BME280;8646;49.716;9.266;2023-04-01T15:15:01;98812.41;;;14.50;77.89
17060;BME280;8646;49.716;9.266;2023-04-01T15:18:17;98832.56;;;14.59;77.70
17060;BME280;8646;49.716;9.266;2023-04-01T15:21:32;98813.88;;;14.54;77.34
17060;BME280;8646;49.716;9.266;2023-04-01T15:24:47;98840.81;;;14.68;77.39
17060;BME280;8646;49.716;9.266;2023-04-01T15:27:55;98839.22;;;14.66;77.27
17060;BME280;8646;49.716;9.266;2023-04-01T15:31:08;98836.63;;;14.64;77.35
17060;BME280;8646;49.716;9.266;2023-04-01T15:34:21;98852.84;;;14.66;77.21
17060;BME280;8646;49.716;9.266;2023-04-01T15:37:36;98849.50;;;14.62;76.63
17060;BME280;8646;49.716;9.266;2023-04-01T15:40:45;98855.44;;;14.56;76.96
17060;BME280;8646;49.716;9.266;2023-04-01T15:43:54;98860.66;;;14.48;76.78
17060;BME280;8646;49.716;9.266;2023-04-01T15:46:58;98848.50;;;14.30;77.10
17060;BME280;8646;49.716;9.266;2023-04-01T15:50:32;98861.25;;;14.18;77.48
17060;BME280;8646;49.716;9.266;2023-04-01T15:54:06;98862.84;;;14.09;77.83
17060;BME280;8646;49.716;9.266;2023-04-01T15:57:27;98853.81;;;13.98;77.85
17060;BME280;8646;49.716;9.266;2023-04-01T16:00:42;98864.81;;;14.07;78.14
17060;BME280;8646;49.716;9.266;2023-04-01T16:04:12;98872.88;;;14.09;78.17
17060;BME280;8646;49.716;9.266;2023-04-01T16:07:30;98877.94;;;14.13;78.28
17060;BME280;8646;49.716;9.266;2023-04-01T16:10:51;98873.72;;;14.21;77.99
17060;BME280;8646;49.716;9.266;2023-04-01T16:14:09;98871.88;;;14.21;77.90
17060;BME280;8646;49.716;9.266;2023-04-01T16:17:48;98870.88;;;14.22;77.44
17060;BME280;8646;49.716;9.266;2023-04-01T16:21:00;98874.97;;;14.17;77.75
17060;BME280;8646;49.716;9.266;2023-04-01T16:24:12;98888.81;;;14.13;77.79
17060;BME280;8646;49.716;9.266;2023-04-01T16:27:26;98885.34;;;14.11;77.84
17060;BME280;8646;49.716;9.266;2023-04-01T16:30:36;98895.63;;;14.08;77.96
17060;BME280;8646;49.716;9.266;2023-04-01T16:33:46;98896.72;;;14.05;78.18
17060;BME280;8646;49.716;9.266;2023-04-01T16:36:54;98901.91;;;13.97;78.00
17060;BME280;8646;49.716;9.266;2023-04-01T16:40:13;98897.44;;;13.85;78.16
17060;BME280;8646;49.716;9.266;2023-04-01T16:43:38;98901.84;;;13.75;78.15
17060;BME280;8646;49.716;9.266;2023-04-01T16:46:44;98866.03;;;13.35;78.28
17060;BME280;8646;49.716;9.266;2023-04-01T16:49:53;98906.59;;;13.49;78.70
17060;BME280;8646;49.716;9.266;2023-04-01T16:53:02;98926.84;;;13.45;78.83
17060;BME280;8646;49.716;9.266;2023-04-01T16:56:16;98908.16;;;13.41;78.88
17060;BME280;8646;49.716;9.266;2023-04-01T16:59:27;98919.28;;;13.38;78.74
17060;BME280;8646;49.716;9.266;2023-04-01T17:02:36;98928.16;;;13.40;78.55
17060;BME280;8646;49.716;9.266;2023-04-01T17:05:52;98931.34;;;13.33;79.08
17060;BME280;8646;49.716;9.266;2023-04-01T17:09:07;98936.00;;;13.31;78.72
17060;BME280;8646;49.716;9.266;2023-04-01T17:12:17;98930.94;;;13.27;78.85
17060;BME280;8646;49.716;9.266;2023-04-01T17:15:29;98938.44;;;13.23;78.99
17060;BME280;8646;49.716;9.266;2023-04-01T17:18:39;98942.13;;;13.22;78.56
17060;BME280;8646;49.716;9.266;2023-04-01T17:21:57;98950.00;;;13.14;78.44
17060;BME280;8646;49.716;9.266;2023-04-01T17:25:33;98946.94;;;13.06;78.91
17060;BME280;8646;49.716;9.266;2023-04-01T17:28:46;98958.06;;;13.03;78.88
17060;BME280;8646;49.716;9.266;2023-04-01T17:32:00;98963.81;;;12.98;78.89
17060;BME280;8646;49.716;9.266;2023-04-01T17:35:12;98964.56;;;13.00;78.80
17060;BME280;8646;49.716;9.266;2023-04-01T17:38:23;98962.22;;;12.96;79.10
17060;BME280;8646;49.716;9.266;2023-04-01T17:41:42;98970.25;;;12.85;79.23
17060;BME280;8646;49.716;9.266;2023-04-01T17:44:57;98970.72;;;12.79;79.38
17060;BME280;8646;49.716;9.266;2023-04-01T17:48:18;98982.03;;;12.73;79.54
17060;BME280;8646;49.716;9.266;2023-04-01T17:51:29;98980.72;;;12.66;79.46
17060;BME280;8646;49.716;9.266;2023-04-01T17:54:43;99000.81;;;12.63;79.53